createdAt,value
2018-04-08T00:02:02.752Z,10.97
2018-04-08T00:04:31.053Z,10.92
2018-04-08T00:06:59.695Z,10.96
2018-04-08T00:09:29.415Z,10.91
2018-04-08T00:11:58.504Z,10.87
2018-04-08T00:14:27.563Z,10.91
2018-04-08T00:16:56.556Z,10.99
2018-04-08T00:19:24.860Z,10.93
2018-04-08T00:21:53.148Z,10.86
2018-04-08T00:24:22.089Z,10.84
2018-04-08T00:26:50.386Z,10.82
2018-04-08T00:29:18.752Z,10.77
2018-04-08T00:31:47.068Z,10.77
2018-04-08T00:34:15.359Z,10.80
2018-04-08T00:36:43.639Z,10.75
2018-04-08T00:39:12.703Z,10.72
2018-04-08T00:41:40.980Z,10.78
2018-04-08T00:44:09.264Z,10.89
2018-04-08T00:46:37.925Z,10.82
2018-04-08T00:49:06.199Z,10.68
2018-04-08T00:51:35.032Z,10.52
2018-04-08T00:54:20.988Z,10.55
2018-04-08T00:56:49.291Z,10.40
2018-04-08T00:59:17.640Z,10.19
2018-04-08T01:01:45.923Z,10.01
2018-04-08T01:04:14.231Z,9.89
2018-04-08T01:06:42.512Z,9.93
2018-04-08T01:09:10.781Z,9.90
2018-04-08T01:11:39.159Z,9.89
2018-04-08T01:14:07.440Z,9.75
2018-04-08T01:16:36.008Z,9.74
2018-04-08T01:19:04.983Z,9.68
2018-04-08T01:21:33.376Z,9.64
2018-04-08T01:24:02.369Z,9.56
2018-04-08T01:26:30.752Z,9.53
2018-04-08T01:28:59.020Z,9.52
2018-04-08T01:31:27.300Z,9.60
2018-04-08T01:33:55.685Z,9.59
2018-04-08T01:36:23.998Z,9.54
2018-04-08T01:38:52.348Z,9.52
2018-04-08T01:41:20.716Z,9.45
2018-04-08T01:43:48.993Z,9.50
2018-04-08T01:46:17.264Z,9.40
2018-04-08T01:48:45.558Z,9.36
2018-04-08T01:51:13.925Z,9.29
2018-04-08T01:53:42.617Z,9.19
2018-04-08T01:56:11.735Z,9.17
2018-04-08T01:58:40.085Z,9.23
2018-04-08T02:01:10.001Z,9.17
2018-04-08T02:03:38.288Z,9.21
2018-04-08T02:06:06.584Z,9.11
2018-04-08T02:08:35.348Z,9.09
2018-04-08T02:11:03.616Z,9.06
2018-04-08T02:13:32.045Z,9.02
2018-04-08T02:16:00.318Z,9.05
2018-04-08T02:18:28.709Z,9.05
2018-04-08T02:20:57.511Z,8.95
2018-04-08T02:23:26.556Z,8.84
2018-04-08T02:25:54.829Z,8.78
2018-04-08T02:28:23.112Z,8.78
2018-04-08T02:30:51.402Z,8.73
2018-04-08T02:33:19.665Z,8.72
2018-04-08T02:35:47.941Z,8.67
2018-04-08T02:38:16.241Z,8.62
2018-04-08T02:40:44.536Z,8.56
2018-04-08T02:43:13.228Z,8.52
2018-04-08T02:45:42.282Z,8.54
2018-04-08T02:48:11.915Z,8.52
2018-04-08T02:50:40.202Z,8.48
2018-04-08T02:53:08.535Z,8.53
2018-04-08T02:55:36.806Z,8.61
2018-04-08T02:58:05.299Z,8.64
2018-04-08T03:00:33.588Z,8.61
2018-04-08T03:03:02.545Z,8.57
2018-04-08T03:05:31.592Z,8.63
2018-04-08T03:07:59.864Z,8.60
2018-04-08T03:10:28.960Z,8.54
2018-04-08T03:12:57.647Z,8.46
2018-04-08T03:15:26.123Z,8.44
2018-04-08T03:17:54.408Z,8.41
2018-04-08T03:20:22.853Z,8.43
2018-04-08T03:22:51.249Z,8.41
2018-04-08T03:25:19.604Z,8.47
2018-04-08T03:27:47.867Z,8.41
2018-04-08T03:30:16.940Z,8.41
2018-04-08T03:32:45.205Z,8.46
2018-04-08T03:35:13.491Z,8.45
2018-04-08T03:37:41.875Z,8.52
2018-04-08T03:40:10.673Z,8.59
2018-04-08T03:42:39.329Z,8.60
2018-04-08T03:45:07.612Z,8.56
2018-04-08T03:47:35.893Z,8.51
2018-04-08T03:50:04.600Z,8.45
2018-04-08T03:52:33.299Z,8.40
2018-04-08T03:55:01.572Z,8.37
2018-04-08T03:57:29.857Z,8.37
2018-04-08T03:59:58.927Z,8.37
2018-04-08T04:02:27.196Z,8.32
2018-04-08T04:04:55.461Z,8.30
2018-04-08T04:07:23.750Z,8.24
2018-04-08T04:09:52.027Z,8.09
2018-04-08T04:12:20.296Z,7.89
2018-04-08T04:14:48.590Z,7.85
2018-04-08T04:17:16.967Z,7.87
2018-04-08T04:20:02.939Z,7.89
2018-04-08T04:22:49.232Z,7.90
2018-04-08T04:28:32.308Z,7.80
2018-04-08T04:31:00.598Z,7.77
2018-04-08T04:33:29.789Z,7.69
2018-04-08T04:35:58.084Z,7.64
2018-04-08T04:38:26.372Z,7.65
2018-04-08T04:40:55.407Z,7.63
2018-04-08T04:43:23.708Z,7.52
2018-04-08T04:45:52.103Z,7.46
2018-04-08T04:48:20.551Z,7.40
2018-04-08T04:50:48.848Z,7.41
2018-04-08T04:53:17.197Z,7.35
2018-04-08T04:55:45.459Z,7.37
2018-04-08T04:58:14.067Z,7.39
2018-04-08T05:00:42.333Z,7.38
2018-04-08T05:03:10.596Z,7.48
2018-04-08T05:05:39.693Z,7.58
2018-04-08T05:08:08.728Z,7.65
2018-04-08T05:10:37.600Z,7.76
2018-04-08T05:13:06.016Z,7.80
2018-04-08T05:15:34.272Z,7.86
2018-04-08T05:18:02.864Z,7.87
2018-04-08T05:20:31.227Z,7.89
2018-04-08T05:22:59.516Z,7.92
2018-04-08T05:25:28.500Z,8.03
2018-04-08T05:27:57.377Z,8.09
2018-04-08T05:30:25.657Z,8.18
2018-04-08T05:32:53.934Z,8.26
2018-04-08T05:35:22.767Z,8.33
2018-04-08T05:37:51.548Z,8.49
2018-04-08T05:40:20.943Z,8.60
2018-04-08T05:42:49.221Z,8.70
2018-04-08T05:45:17.489Z,8.71
2018-04-08T05:47:45.968Z,8.87
2018-04-08T05:50:14.252Z,9.01
2018-04-08T05:52:42.529Z,9.13
2018-04-08T05:55:10.904Z,9.22
2018-04-08T05:57:39.321Z,9.33
2018-04-08T06:00:07.668Z,9.42
2018-04-08T06:02:36.276Z,9.54
2018-04-08T06:05:04.764Z,9.63
2018-04-08T06:07:33.052Z,9.70
2018-04-08T06:10:01.417Z,9.82
2018-04-08T06:12:30.204Z,9.98
2018-04-08T06:14:58.854Z,10.08
2018-04-08T06:17:27.174Z,10.22
2018-04-08T06:19:55.443Z,10.27
2018-04-08T06:22:23.712Z,10.33
2018-04-08T06:24:52.196Z,10.45
2018-04-08T06:27:21.296Z,10.57
2018-04-08T06:29:49.574Z,10.72
2018-04-08T06:32:17.894Z,10.90
2018-04-08T06:34:46.937Z,10.94
2018-04-08T06:37:15.243Z,11.00
2018-04-08T06:39:44.316Z,11.11
2018-04-08T06:42:12.604Z,11.24
2018-04-08T06:44:40.927Z,11.31
2018-04-08T06:47:09.992Z,11.41
2018-04-08T06:49:38.480Z,11.51
2018-04-08T06:52:07.032Z,11.52
2018-04-08T06:54:35.412Z,11.60
2018-04-08T06:57:03.716Z,11.69
2018-04-08T06:59:32.264Z,11.78
2018-04-08T07:02:00.565Z,11.87
2018-04-08T07:04:28.855Z,11.98
2018-04-08T07:06:57.547Z,12.07
2018-04-08T07:09:26.407Z,12.16
2018-04-08T07:11:54.692Z,12.22
2018-04-08T07:14:23.018Z,12.33
2018-04-08T07:16:52.078Z,12.45
2018-04-08T07:19:20.690Z,12.59
2018-04-08T07:21:49.783Z,12.71
2018-04-08T07:24:18.307Z,12.74
2018-04-08T07:26:46.581Z,12.83
2018-04-08T07:29:14.937Z,12.90
2018-04-08T07:31:44.403Z,13.11
2018-04-08T07:34:12.981Z,13.12
2018-04-08T07:36:41.875Z,13.19
2018-04-08T07:39:10.316Z,13.31
2018-04-08T07:41:39.337Z,13.34
2018-04-08T07:44:07.847Z,13.40
2018-04-08T07:46:36.115Z,13.48
2018-04-08T07:49:04.411Z,13.64
2018-04-08T07:51:34.492Z,13.59
2018-04-08T07:54:02.805Z,13.76
2018-04-08T07:56:31.199Z,13.83
2018-04-08T07:58:59.505Z,13.93
2018-04-08T08:01:27.784Z,14.02
2018-04-08T08:03:56.092Z,14.16
2018-04-08T08:06:24.649Z,14.19
2018-04-08T08:08:52.930Z,14.30
2018-04-08T08:11:21.632Z,14.31
2018-04-08T08:13:49.956Z,14.40
2018-04-08T08:16:18.260Z,14.49
2018-04-08T08:18:47.316Z,14.60
2018-04-08T08:21:15.624Z,14.63
2018-04-08T08:23:45.118Z,14.84
2018-04-08T08:26:13.763Z,14.84
2018-04-08T08:28:42.092Z,14.83
2018-04-08T08:31:11.148Z,14.86
2018-04-08T08:33:39.425Z,14.97
2018-04-08T08:36:07.717Z,14.99
2018-04-08T08:38:36.288Z,15.07
2018-04-08T08:41:05.376Z,15.13
2018-04-08T08:43:33.660Z,15.22
2018-04-08T08:46:01.963Z,15.40
2018-04-08T08:48:30.284Z,15.40
2018-04-08T08:50:58.580Z,15.47
2018-04-08T08:53:26.986Z,15.63
2018-04-08T08:55:55.270Z,15.67
2018-04-08T08:58:23.561Z,15.87
2018-04-08T09:00:51.968Z,15.93
2018-04-08T09:03:21.016Z,16.00
2018-04-08T09:05:49.416Z,16.20
2018-04-08T09:08:17.708Z,16.37
2018-04-08T09:10:47.271Z,16.45
2018-04-08T09:13:16.061Z,16.48
2018-04-08T09:15:44.344Z,16.48
2018-04-08T09:18:12.979Z,16.68
2018-04-08T09:23:57.547Z,17.07
2018-04-08T09:26:26.643Z,17.06
2018-04-08T09:28:55.711Z,17.20
2018-04-08T09:31:23.993Z,17.22
2018-04-08T09:33:52.513Z,17.20
2018-04-08T09:36:21.587Z,17.30
2018-04-08T09:38:49.880Z,17.37
2018-04-08T09:41:18.955Z,17.31
2018-04-08T09:43:47.285Z,17.40
2018-04-08T09:46:15.598Z,17.54
2018-04-08T09:48:43.917Z,17.65
2018-04-08T09:51:12.963Z,17.69
2018-04-08T09:53:41.273Z,17.69
2018-04-08T09:56:10.132Z,17.74
2018-04-08T09:58:39.010Z,17.83
2018-04-08T10:01:26.746Z,17.96
2018-04-08T10:03:55.904Z,18.20
2018-04-08T10:06:24.311Z,18.32
2018-04-08T10:08:52.616Z,18.33
2018-04-08T10:11:21.613Z,18.59
2018-04-08T10:13:49.908Z,18.71
2018-04-08T10:16:18.199Z,18.86
2018-04-08T10:18:46.513Z,18.90
2018-04-08T10:21:14.801Z,18.94
2018-04-08T10:23:43.092Z,19.17
2018-04-08T10:26:11.837Z,19.29
2018-04-08T11:59:54.018Z,22.05
2018-04-08T12:02:22.818Z,22.17
2018-04-08T12:04:51.118Z,22.24
2018-04-08T12:07:19.612Z,22.40
2018-04-08T12:09:47.894Z,22.54
2018-04-08T12:12:16.171Z,22.67
2018-04-08T12:14:45.329Z,22.89
2018-04-08T12:17:13.646Z,22.98
2018-04-08T12:19:41.951Z,23.14
2018-04-08T12:22:11.033Z,23.32
2018-04-08T12:24:39.328Z,23.41
2018-04-08T12:27:09.290Z,23.56
2018-04-08T12:29:37.665Z,23.70
2018-04-08T12:32:05.949Z,24.03
2018-04-08T12:34:36.962Z,24.80
2018-04-08T12:37:05.202Z,26.36
2018-04-08T12:39:34.265Z,27.32
2018-04-08T12:42:02.636Z,29.28
2018-04-08T12:44:31.127Z,30.12
2018-04-08T12:46:59.427Z,31.38
2018-04-08T12:49:27.737Z,32.01
2018-04-08T12:51:57.306Z,31.87
2018-04-08T12:54:25.592Z,32.79
2018-04-08T12:56:54.365Z,32.40
2018-04-08T12:59:24.060Z,32.59
2018-04-08T13:01:53.049Z,32.99
2018-04-08T13:04:23.392Z,32.68
2018-04-08T13:06:51.664Z,33.87
2018-04-08T13:09:20.051Z,35.15
2018-04-08T13:11:48.336Z,35.09
2018-04-08T13:14:16.654Z,33.89
2018-04-08T13:16:46.352Z,34.38
2018-04-08T13:19:14.651Z,33.52
2018-04-08T13:21:43.709Z,34.23
2018-04-08T13:24:14.200Z,34.49
2018-04-08T13:26:42.470Z,33.20
2018-04-08T13:29:12.127Z,33.72
2018-04-08T13:31:41.065Z,34.26
2018-04-08T13:34:10.320Z,34.60
2018-04-08T13:36:38.700Z,34.09
2018-04-08T13:39:07.009Z,34.99
2018-04-08T13:41:36.376Z,36.00
2018-04-08T13:44:06.579Z,35.39
2018-04-08T13:46:34.857Z,35.39
2018-04-08T13:49:03.156Z,35.50
2018-04-08T13:51:31.524Z,35.83
2018-04-08T13:54:00.835Z,36.89
2018-04-08T13:56:30.676Z,36.84
2018-04-08T13:59:01.578Z,35.96
2018-04-08T14:01:29.908Z,36.55
2018-04-08T14:03:58.950Z,37.51
2018-04-08T14:06:27.233Z,37.09
2018-04-08T14:08:55.536Z,38.06
2018-04-08T14:11:24.172Z,38.67
2018-04-08T14:13:53.534Z,37.96
2018-04-08T14:16:21.829Z,37.50
2018-04-08T14:18:50.977Z,38.15
2018-04-08T14:21:20.073Z,36.33
2018-04-08T14:23:48.869Z,37.75
2018-04-08T14:26:17.641Z,38.20
2018-04-08T14:28:45.978Z,38.18
2018-04-08T14:31:15.218Z,36.56
2018-04-08T14:33:43.699Z,36.45
2018-04-08T14:36:11.992Z,37.05
2018-04-08T14:38:40.285Z,36.84
2018-04-08T14:41:08.831Z,36.80
2018-04-08T14:43:37.952Z,37.51
2018-04-08T14:46:06.240Z,37.66
2018-04-08T14:48:35.736Z,36.85
2018-04-08T14:51:06.889Z,35.53
2018-04-08T14:53:36.035Z,35.27
2018-04-08T14:56:05.212Z,36.00
2018-04-08T14:58:35.341Z,36.18
2018-04-08T15:01:04.944Z,36.43
2018-04-08T15:03:34.012Z,37.43
2018-04-08T15:06:02.328Z,37.85
2018-04-08T15:08:31.957Z,37.15
2018-04-08T15:11:00.249Z,36.78
2018-04-08T15:13:28.839Z,37.30
2018-04-08T15:15:57.137Z,37.29
2018-04-08T15:18:26.229Z,36.48
2018-04-08T15:20:54.533Z,36.69
2018-04-08T15:23:22.800Z,35.24
2018-04-08T15:25:51.274Z,34.68
2018-04-08T15:28:19.604Z,36.13
2018-04-08T15:30:47.872Z,34.44
2018-04-08T15:33:16.159Z,32.89
2018-04-08T15:35:45.288Z,33.84
2018-04-08T15:38:13.591Z,33.44
2018-04-08T15:40:41.900Z,33.31
2018-04-08T15:43:11.022Z,33.65
2018-04-08T15:45:39.302Z,34.73
2018-04-08T15:48:07.607Z,33.84
2018-04-08T15:50:35.989Z,34.32
2018-04-08T15:53:05.463Z,33.52
2018-04-08T15:55:33.735Z,32.53
2018-04-08T15:58:02.068Z,32.46
2018-04-08T16:00:31.260Z,32.24
2018-04-08T16:02:59.603Z,33.04
2018-04-08T16:05:27.887Z,32.00
2018-04-08T16:07:56.177Z,32.42
2018-04-08T16:10:24.753Z,32.26
2018-04-08T16:12:53.623Z,30.42
2018-04-08T16:15:21.968Z,30.88
2018-04-08T16:17:50.241Z,29.15
2018-04-08T16:20:18.525Z,28.12
2018-04-08T16:22:48.709Z,28.54
2018-04-08T16:25:17.028Z,29.07
2018-04-08T16:27:46.669Z,28.78
2018-04-08T16:30:14.947Z,28.19
2018-04-08T16:32:43.252Z,28.58
2018-04-08T16:35:13.005Z,28.13
2018-04-08T16:37:41.508Z,27.49
2018-04-08T16:40:10.857Z,26.35
2018-04-08T16:42:39.392Z,26.22
2018-04-08T16:45:09.315Z,25.71
2018-04-08T16:47:38.689Z,25.25
2018-04-08T16:50:07.807Z,24.83
2018-04-08T16:52:36.858Z,24.29
2018-04-08T16:55:05.419Z,24.23
2018-04-08T16:57:33.810Z,23.97
2018-04-08T17:00:03.128Z,23.54
2018-04-08T17:02:32.410Z,23.01
2018-04-08T17:05:00.884Z,23.17
2018-04-08T17:07:30.361Z,22.90
2018-04-08T17:09:59.824Z,22.76
2018-04-08T17:12:28.200Z,22.39
2018-04-08T17:14:57.219Z,22.09
2018-04-08T17:17:25.525Z,22.31
2018-04-08T17:19:54.651Z,22.33
2018-04-08T17:22:23.016Z,21.66
2018-04-08T17:24:51.329Z,21.55
2018-04-08T17:27:19.608Z,21.35
2018-04-08T17:29:48.610Z,21.36
2018-04-08T17:32:16.928Z,21.21
2018-04-08T17:34:45.248Z,21.16
2018-04-08T17:37:13.648Z,21.03
2018-04-08T17:39:43.542Z,20.57
2018-04-08T17:42:13.208Z,20.62
2018-04-08T17:44:42.504Z,20.60
2018-04-08T17:47:11.972Z,20.21
2018-04-08T17:49:40.481Z,20.16
2018-04-08T17:52:08.949Z,20.05
2018-04-08T17:54:37.617Z,19.67
2018-04-08T17:57:06.460Z,19.50
2018-04-08T17:59:34.955Z,19.24
2018-04-08T18:02:03.260Z,19.04
2018-04-08T18:04:31.563Z,18.92
2018-04-08T18:07:00.955Z,18.67
2018-04-08T18:09:30.062Z,18.67
2018-04-08T18:11:58.572Z,18.55
2018-04-08T18:14:27.730Z,18.52
2018-04-08T18:16:56.371Z,18.27
2018-04-08T18:19:25.709Z,18.06
2018-04-08T18:21:54.179Z,18.05
2018-04-08T18:24:22.563Z,17.96
2018-04-08T18:26:50.878Z,17.86
2018-04-08T18:29:21.664Z,17.73
2018-04-08T18:31:50.114Z,17.75
2018-04-08T18:34:19.180Z,17.59
2018-04-08T18:36:47.840Z,17.44
2018-04-08T18:39:16.170Z,17.43
2018-04-08T18:41:45.949Z,17.38
2018-04-08T18:44:15.378Z,17.16
2018-04-08T18:46:44.144Z,17.09
2018-04-08T18:49:12.436Z,17.22
2018-04-08T18:51:41.674Z,17.30
2018-04-08T18:54:12.084Z,17.32
2018-04-08T18:56:41.196Z,17.29
2018-04-08T18:59:10.656Z,17.28
2018-04-08T19:01:39.108Z,17.27
2018-04-08T19:04:07.436Z,17.29
2018-04-08T19:06:36.151Z,17.21
2018-04-08T19:09:05.946Z,17.05
2018-04-08T19:11:35.347Z,16.91
2018-04-08T19:14:04.258Z,16.87
2018-04-08T19:16:33.653Z,16.82
2018-04-08T19:19:02.799Z,16.69
2018-04-08T19:21:31.184Z,16.74
2018-04-08T19:23:59.466Z,16.68
2018-04-08T19:26:29.216Z,16.72
2018-04-08T19:28:58.301Z,16.70
2018-04-08T19:31:26.939Z,16.64
2018-04-08T19:33:56.061Z,16.57
2018-04-08T19:36:25.336Z,16.56
2018-04-08T19:38:55.271Z,16.53
2018-04-08T19:41:23.599Z,16.65
2018-04-08T19:43:53.426Z,16.57
2018-04-08T19:46:22.853Z,16.43
2018-04-08T19:48:51.143Z,16.42
2018-04-08T19:51:20.164Z,16.41
2018-04-08T19:53:48.469Z,16.37
2018-04-08T19:56:17.548Z,16.33
2018-04-08T19:58:46.484Z,16.37
2018-04-08T20:01:14.785Z,16.34
2018-04-08T20:03:44.733Z,16.43
2018-04-08T20:06:13.240Z,16.51
2018-04-08T20:08:42.407Z,16.55
2018-04-08T20:11:11.086Z,16.53
2018-04-08T20:13:39.712Z,16.55
2018-04-08T20:16:09.484Z,16.63
2018-04-08T20:18:39.405Z,16.43
2018-04-08T20:21:08.511Z,16.35
2018-04-08T20:23:36.869Z,16.28
2018-04-08T20:26:05.262Z,16.32
2018-04-08T20:28:34.351Z,16.40
2018-04-08T20:31:03.121Z,16.40
2018-04-08T20:33:31.537Z,16.38
2018-04-08T20:36:00.798Z,16.45
2018-04-08T20:38:29.329Z,16.22
2018-04-08T20:40:58.163Z,16.13
2018-04-08T20:43:27.297Z,16.13
2018-04-08T20:45:55.780Z,16.21
2018-04-08T20:48:24.072Z,16.20
2018-04-08T20:50:52.372Z,16.15
2018-04-08T20:53:22.305Z,16.13
2018-04-08T20:55:50.595Z,16.13
2018-04-08T20:58:19.127Z,16.11
2018-04-08T21:00:47.585Z,16.18
2018-04-08T21:03:15.890Z,16.20
2018-04-08T21:05:44.189Z,16.22
2018-04-08T21:08:13.257Z,16.10
2018-04-08T21:10:44.072Z,16.13
2018-04-08T21:13:12.615Z,16.01
2018-04-08T21:15:41.666Z,16.04
2018-04-08T21:18:09.963Z,15.96
2018-04-08T21:20:38.280Z,15.97
2018-04-08T21:23:06.607Z,15.97
2018-04-08T21:25:34.934Z,15.95
2018-04-08T21:28:03.634Z,15.97
2018-04-08T21:30:32.260Z,15.98
2018-04-08T21:33:01.473Z,15.98
2018-04-08T21:35:29.770Z,15.99
2018-04-08T21:37:58.829Z,15.94
2018-04-08T21:40:27.125Z,15.93
2018-04-08T21:42:55.415Z,16.00
2018-04-08T21:45:25.345Z,16.03
2018-04-08T21:47:53.769Z,16.05
2018-04-08T21:50:22.385Z,16.03
2018-04-08T21:52:50.705Z,16.04
2018-04-08T21:55:18.999Z,15.97
2018-04-08T21:57:47.361Z,15.94
2018-04-08T22:00:15.681Z,15.84
2018-04-08T22:02:43.970Z,15.86
2018-04-08T22:05:13.171Z,15.81
2018-04-08T22:07:41.467Z,15.83
2018-04-08T22:10:09.779Z,15.71
2018-04-08T22:12:38.174Z,15.68
2018-04-08T22:15:06.726Z,15.69
2018-04-08T22:17:36.820Z,15.59
2018-04-08T22:20:05.928Z,15.53
2018-04-08T22:22:35.004Z,15.46
2018-04-08T22:25:03.307Z,15.40
2018-04-08T22:27:32.396Z,15.34
2018-04-08T22:30:01.442Z,15.28
2018-04-08T22:32:30.064Z,15.27
2018-04-08T22:34:58.698Z,15.28
2018-04-08T22:37:26.984Z,15.20
2018-04-08T22:39:55.289Z,15.13
2018-04-08T22:42:23.620Z,15.10
2018-04-08T22:44:54.014Z,15.03
2018-04-08T22:47:22.514Z,15.04
2018-04-08T22:49:51.594Z,14.99
2018-04-08T22:52:19.930Z,14.98
2018-04-08T22:54:48.222Z,14.90
2018-04-08T22:57:17.190Z,14.92
2018-04-08T22:59:47.173Z,14.94
2018-04-08T23:02:16.969Z,14.92
2018-04-08T23:04:45.260Z,14.81
2018-04-08T23:07:16.407Z,14.51
2018-04-08T23:09:45.508Z,14.30
2018-04-08T23:12:14.591Z,14.06
2018-04-08T23:14:42.891Z,13.87
2018-04-08T23:17:11.957Z,13.70
2018-04-08T23:19:40.676Z,13.60
2018-04-08T23:22:09.829Z,13.57
2018-04-08T23:24:38.128Z,13.63
2018-04-08T23:27:06.416Z,13.80
2018-04-08T23:29:35.516Z,13.91
2018-04-08T23:32:04.612Z,13.91
2018-04-08T23:34:32.940Z,13.88
2018-04-08T23:37:01.309Z,13.78
2018-04-08T23:39:29.612Z,13.76
2018-04-08T23:41:57.895Z,13.64
2018-04-08T23:44:27.364Z,13.82
2018-04-08T23:46:55.691Z,13.90
2018-04-08T23:49:23.981Z,13.98
2018-04-08T23:51:52.277Z,14.06
2018-04-08T23:54:22.093Z,14.04
2018-04-08T23:56:50.393Z,13.91
2018-04-08T23:59:19.051Z,13.74
